sensor_id;sensor_type;location;lat;lon;timestamp;pressure;altitude;pressure_sealevel;temperature;humidity
18022;BME280;9136;48.822;7.966;2023-04-16T00:02:24;100330.25;;;8.34;100.00
18022;BME280;9136;48.822;7.966;2023-04-16T00:05:12;100331.03;;;8.39;100.00
18022;BME280;9136;48.822;7.966;2023-04-16T00:08:01;100307.69;;;8.28;100.00
18022;BME280;9136;48.822;7.966;2023-04-16T00:10:49;100335.94;;;8.54;100.00
18022;BME280;9136;48.822;7.966;2023-04-16T00:13:38;100307.38;;;8.44;100.00
18022;BME280;9136;48.822;7.966;2023-04-16T00:16:26;100328.78;;;8.63;100.00
18022;BME280;9136;48.822;7.966;2023-04-16T00:19:14;100319.06;;;8.66;100.00
18022;BME280;9136;48.822;7.966;2023-04-16T00:22:02;100326.72;;;8.75;100.00
18022;BME280;9136;48.822;7.966;2023-04-16T00:24:50;100340.50;;;8.83;100.00
18022;BME280;9136;48.822;7.966;2023-04-16T00:27:37;100319.81;;;8.73;100.00
18022;BME280;9136;48.822;7.966;2023-04-16T00:30:27;100334.38;;;8.84;100.00
18022;BME280;9136;48.822;7.966;2023-04-16T00:33:14;100327.44;;;8.82;100.00
18022;BME280;9136;48.822;7.966;2023-04-16T00:36:03;100339.56;;;8.86;100.00
18022;BME280;9136;48.822;7.966;2023-04-16T00:38:51;100337.78;;;8.88;100.00
18022;BME280;9136;48.822;7.966;2023-04-16T00:41:38;100323.19;;;8.76;100.00
18022;BME280;9136;48.822;7.966;2023-04-16T00:44:26;100317.28;;;8.68;100.00
18022;BME280;9136;48.822;7.966;2023-04-16T00:47:16;100308.66;;;8.65;100.00
18022;BME280;9136;48.822;7.966;2023-04-16T00:50:04;100348.31;;;8.85;100.00
18022;BME280;9136;48.822;7.966;2023-04-16T00:52:52;100329.25;;;8.80;100.00
18022;BME280;9136;48.822;7.966;2023-04-16T00:55:40;100328.34;;;8.81;100.00
18022;BME280;9136;48.822;7.966;2023-04-16T00:58:29;100327.59;;;8.76;100.00
18022;BME280;9136;48.822;7.966;2023-04-16T01:01:16;100332.88;;;8.74;100.00
18022;BME280;9136;48.822;7.966;2023-04-16T01:04:06;100323.25;;;8.75;100.00
18022;BME280;9136;48.822;7.966;2023-04-16T01:06:53;100335.38;;;8.79;100.00
18022;BME280;9136;48.822;7.966;2023-04-16T01:09:41;100340.50;;;8.83;100.00
18022;BME280;9136;48.822;7.966;2023-04-16T01:12:29;100328.41;;;8.78;100.00
18022;BME280;9136;48.822;7.966;2023-04-16T01:15:17;100332.91;;;8.73;100.00
18022;BME280;9136;48.822;7.966;2023-04-16T01:18:12;100337.31;;;8.71;100.00
18022;BME280;9136;48.822;7.966;2023-04-16T01:21:02;100345.88;;;8.79;100.00
18022;BME280;9136;48.822;7.966;2023-04-16T01:23:50;100334.78;;;8.66;100.00
18022;BME280;9136;48.822;7.966;2023-04-16T01:26:38;100360.56;;;8.84;100.00
18022;BME280;9136;48.822;7.966;2023-04-16T01:29:26;100357.03;;;8.85;100.00
18022;BME280;9136;48.822;7.966;2023-04-16T01:32:13;100353.44;;;8.91;100.00
18022;BME280;9136;48.822;7.966;2023-04-16T01:35:01;100351.66;;;8.92;100.00
18022;BME280;9136;48.822;7.966;2023-04-16T01:37:50;100350.34;;;8.74;100.00
18022;BME280;9136;48.822;7.966;2023-04-16T01:40:38;100356.47;;;8.73;100.00
18022;BME280;9136;48.822;7.966;2023-04-16T01:43:26;100357.28;;;8.75;100.00
18022;BME280;9136;48.822;7.966;2023-04-16T01:46:19;100346.00;;;8.73;100.00
18022;BME280;9136;48.822;7.966;2023-04-16T01:49:07;100340.84;;;8.70;100.00
18022;BME280;9136;48.822;7.966;2023-04-16T01:51:55;100361.84;;;8.67;100.00
18022;BME280;9136;48.822;7.966;2023-04-16T01:54:44;100368.78;;;8.68;100.00
18022;BME280;9136;48.822;7.966;2023-04-16T01:57:32;100343.06;;;8.49;100.00
18022;BME280;9136;48.822;7.966;2023-04-16T02:00:20;100344.97;;;8.41;100.00
18022;BME280;9136;48.822;7.966;2023-04-16T02:03:08;100330.28;;;8.32;100.00
18022;BME280;9136;48.822;7.966;2023-04-16T02:05:56;100332.25;;;8.23;100.00
18022;BME280;9136;48.822;7.966;2023-04-16T02:08:44;100351.13;;;8.39;100.00
18022;BME280;9136;48.822;7.966;2023-04-16T02:11:33;100325.22;;;8.25;100.00
18022;BME280;9136;48.822;7.966;2023-04-16T02:14:21;100353.66;;;8.43;100.00
18022;BME280;9136;48.822;7.966;2023-04-16T02:17:10;100346.78;;;8.38;100.00
18022;BME280;9136;48.822;7.966;2023-04-16T02:19:58;100352.72;;;8.46;100.00
18022;BME280;9136;48.822;7.966;2023-04-16T02:22:48;100340.56;;;8.43;100.00
18022;BME280;9136;48.822;7.966;2023-04-16T02:25:38;100363.03;;;8.53;100.00
18022;BME280;9136;48.822;7.966;2023-04-16T02:28:28;100363.22;;;8.44;100.00
18022;BME280;9136;48.822;7.966;2023-04-16T02:31:16;100366.63;;;8.48;100.00
18022;BME280;9136;48.822;7.966;2023-04-16T02:34:04;100359.53;;;8.53;100.00
18022;BME280;9136;48.822;7.966;2023-04-16T02:36:52;100367.28;;;8.57;100.00
18022;BME280;9136;48.822;7.966;2023-04-16T02:39:42;100372.34;;;8.65;100.00
18022;BME280;9136;48.822;7.966;2023-04-16T02:42:31;100362.78;;;8.64;100.00
18022;BME280;9136;48.822;7.966;2023-04-16T02:45:20;100350.75;;;8.55;100.00
18022;BME280;9136;48.822;7.966;2023-04-16T02:48:08;100360.13;;;8.66;100.00
18022;BME280;9136;48.822;7.966;2023-04-16T02:50:56;100365.31;;;8.69;100.00
18022;BME280;9136;48.822;7.966;2023-04-16T02:53:43;100371.19;;;8.78;100.00
18022;BME280;9136;48.822;7.966;2023-04-16T02:56:32;100339.91;;;8.72;100.00
18022;BME280;9136;48.822;7.966;2023-04-16T02:59:19;100343.28;;;8.76;100.00
18022;BME280;9136;48.822;7.966;2023-04-16T03:02:09;100364.19;;;8.79;100.00
18022;BME280;9136;48.822;7.966;2023-04-16T03:04:56;100359.00;;;8.76;100.00
18022;BME280;9136;48.822;7.966;2023-04-16T03:07:44;100361.78;;;8.70;100.00
18022;BME280;9136;48.822;7.966;2023-04-16T03:10:34;100352.91;;;8.75;100.00
18022;BME280;9136;48.822;7.966;2023-04-16T03:13:22;100347.88;;;8.66;100.00
18022;BME280;9136;48.822;7.966;2023-04-16T03:16:10;100364.34;;;8.73;100.00
18022;BME280;9136;48.822;7.966;2023-04-16T03:18:59;100359.19;;;8.68;100.00
18022;BME280;9136;48.822;7.966;2023-04-16T03:21:47;100369.53;;;8.74;100.00
18022;BME280;9136;48.822;7.966;2023-04-16T03:24:34;100375.75;;;8.70;100.00
18022;BME280;9136;48.822;7.966;2023-04-16T03:27:23;100370.66;;;8.63;100.00
18022;BME280;9136;48.822;7.966;2023-04-16T03:30:11;100368.13;;;8.58;100.00
18022;BME280;9136;48.822;7.966;2023-04-16T03:32:59;100358.88;;;8.43;100.00
18022;BME280;9136;48.822;7.966;2023-04-16T03:35:55;100369.25;;;8.48;100.00
18022;BME280;9136;48.822;7.966;2023-04-16T03:38:43;100377.09;;;8.48;100.00
18022;BME280;9136;48.822;7.966;2023-04-16T03:41:31;100376.03;;;8.56;100.00
18022;BME280;9136;48.822;7.966;2023-04-16T03:44:20;100371.69;;;8.55;100.00
18022;BME280;9136;48.822;7.966;2023-04-16T03:47:10;100371.66;;;8.57;100.00
18022;BME280;9136;48.822;7.966;2023-04-16T03:49:58;100406.31;;;8.68;100.00
18022;BME280;9136;48.822;7.966;2023-04-16T03:52:47;100365.84;;;8.44;100.00
18022;BME280;9136;48.822;7.966;2023-04-16T03:55:35;100365.91;;;8.41;100.00
18022;BME280;9136;48.822;7.966;2023-04-16T03:58:23;100372.72;;;8.48;100.00
18022;BME280;9136;48.822;7.966;2023-04-16T04:01:11;100386.59;;;8.53;100.00
18022;BME280;9136;48.822;7.966;2023-04-16T04:03:59;100395.97;;;8.64;100.00
18022;BME280;9136;48.822;7.966;2023-04-16T04:06:47;100358.81;;;8.46;100.00
18022;BME280;9136;48.822;7.966;2023-04-16T04:09:36;100394.94;;;8.71;100.00
18022;BME280;9136;48.822;7.966;2023-04-16T04:12:24;100409.75;;;8.72;100.00
18022;BME280;9136;48.822;7.966;2023-04-16T04:15:12;100395.88;;;8.67;100.00
18022;BME280;9136;48.822;7.966;2023-04-16T04:18:01;100389.09;;;8.59;100.00
18022;BME280;9136;48.822;7.966;2023-04-16T04:20:49;100396.97;;;8.56;100.00
18022;BME280;9136;48.822;7.966;2023-04-16T04:23:37;100386.63;;;8.52;100.00
18022;BME280;9136;48.822;7.966;2023-04-16T04:26:28;100381.28;;;8.56;100.00
18022;BME280;9136;48.822;7.966;2023-04-16T04:29:16;100408.06;;;8.68;100.00
18022;BME280;9136;48.822;7.966;2023-04-16T04:32:04;100395.22;;;8.57;100.00
18022;BME280;9136;48.822;7.966;2023-04-16T04:34:51;100388.34;;;8.53;100.00
18022;BME280;9136;48.822;7.966;2023-04-16T04:37:39;100407.47;;;8.56;100.00
18022;BME280;9136;48.822;7.966;2023-04-16T04:40:27;100413.41;;;8.65;100.00
18022;BME280;9136;48.822;7.966;2023-04-16T04:43:16;100416.00;;;8.65;100.00
18022;BME280;9136;48.822;7.966;2023-04-16T04:46:04;100405.66;;;8.58;100.00
18022;BME280;9136;48.822;7.966;2023-04-16T04:48:52;100415.19;;;8.63;100.00
18022;BME280;9136;48.822;7.966;2023-04-16T04:51:59;100426.25;;;8.75;100.00
18022;BME280;9136;48.822;7.966;2023-04-16T04:54:48;100407.38;;;8.61;100.00
18022;BME280;9136;48.822;7.966;2023-04-16T04:57:35;100428.03;;;8.73;100.00
18022;BME280;9136;48.822;7.966;2023-04-16T05:00:23;100410.78;;;8.65;100.00
18022;BME280;9136;48.822;7.966;2023-04-16T05:03:11;100420.47;;;8.61;100.00
18022;BME280;9136;48.822;7.966;2023-04-16T05:05:59;100442.03;;;8.72;100.00
18022;BME280;9136;48.822;7.966;2023-04-16T05:08:48;100434.41;;;8.62;100.00
18022;BME280;9136;48.822;7.966;2023-04-16T05:11:36;100440.41;;;8.67;100.00
18022;BME280;9136;48.822;7.966;2023-04-16T05:14:24;100447.34;;;8.69;100.00
18022;BME280;9136;48.822;7.966;2023-04-16T05:17:12;100427.59;;;8.54;100.00
18022;BME280;9136;48.822;7.966;2023-04-16T05:20:00;100460.25;;;8.78;100.00
18022;BME280;9136;48.822;7.966;2023-04-16T05:22:49;100454.13;;;8.78;100.00
18022;BME280;9136;48.822;7.966;2023-04-16T05:25:38;100444.75;;;8.69;100.00
18022;BME280;9136;48.822;7.966;2023-04-16T05:28:26;100459.16;;;8.87;100.00
18022;BME280;9136;48.822;7.966;2023-04-16T05:31:14;100468.69;;;8.91;100.00
18022;BME280;9136;48.822;7.966;2023-04-16T05:34:02;100445.31;;;8.82;100.00
18022;BME280;9136;48.822;7.966;2023-04-16T05:36:50;100460.94;;;8.86;100.00
18022;BME280;9136;48.822;7.966;2023-04-16T05:39:38;100454.00;;;8.84;100.00
18022;BME280;9136;48.822;7.966;2023-04-16T05:42:27;100481.72;;;8.94;100.00
18022;BME280;9136;48.822;7.966;2023-04-16T05:45:15;100468.78;;;8.88;100.00
18022;BME280;9136;48.822;7.966;2023-04-16T05:48:02;100463.66;;;8.82;100.00
18022;BME280;9136;48.822;7.966;2023-04-16T05:50:50;100480.97;;;8.89;100.00
18022;BME280;9136;48.822;7.966;2023-04-16T05:53:39;100504.41;;;8.95;100.00
18022;BME280;9136;48.822;7.966;2023-04-16T05:56:29;100500.75;;;9.02;100.00
18022;BME280;9136;48.822;7.966;2023-04-16T05:59:22;100493.88;;;8.97;100.00
18022;BME280;9136;48.822;7.966;2023-04-16T06:02:09;100481.03;;;8.86;100.00
18022;BME280;9136;48.822;7.966;2023-04-16T06:04:57;100474.09;;;8.83;100.00
18022;BME280;9136;48.822;7.966;2023-04-16T06:07:45;100476.56;;;8.91;100.00
18022;BME280;9136;48.822;7.966;2023-04-16T06:10:33;100525.00;;;9.12;100.00
18022;BME280;9136;48.822;7.966;2023-04-16T06:13:21;100510.06;;;9.15;100.00
18022;BME280;9136;48.822;7.966;2023-04-16T06:16:10;100490.38;;;8.99;100.00
18022;BME280;9136;48.822;7.966;2023-04-16T06:18:59;100507.66;;;9.06;100.00
18022;BME280;9136;48.822;7.966;2023-04-16T06:21:46;100524.97;;;9.13;100.00
18022;BME280;9136;48.822;7.966;2023-04-16T06:24:34;100518.13;;;9.06;100.00
18022;BME280;9136;48.822;7.966;2023-04-16T06:27:22;100528.50;;;9.12;100.00
18022;BME280;9136;48.822;7.966;2023-04-16T06:30:11;100522.50;;;9.07;100.00
18022;BME280;9136;48.822;7.966;2023-04-16T06:33:01;100513.09;;;8.97;100.00
18022;BME280;9136;48.822;7.966;2023-04-16T06:35:48;100511.38;;;8.98;100.00
18022;BME280;9136;48.822;7.966;2023-04-16T06:38:36;100522.50;;;9.07;100.00
18022;BME280;9136;48.822;7.966;2023-04-16T06:41:24;100515.50;;;9.08;100.00
18022;BME280;9136;48.822;7.966;2023-04-16T06:44:12;100527.34;;;9.24;100.00
18022;BME280;9136;48.822;7.966;2023-04-16T06:47:00;100510.06;;;9.15;100.00
18022;BME280;9136;48.822;7.966;2023-04-16T06:49:50;100534.25;;;9.30;100.00
18022;BME280;9136;48.822;7.966;2023-04-16T06:52:37;100521.25;;;9.24;100.00
18022;BME280;9136;48.822;7.966;2023-04-16T06:55:25;100509.88;;;9.25;100.00
18022;BME280;9136;48.822;7.966;2023-04-16T06:58:13;100523.63;;;9.34;100.00
18022;BME280;9136;48.822;7.966;2023-04-16T07:01:01;100526.00;;;9.45;100.00
18022;BME280;9136;48.822;7.966;2023-04-16T07:03:49;100541.31;;;9.63;100.00
18022;BME280;9136;48.822;7.966;2023-04-16T07:06:38;100545.59;;;9.67;100.00
18022;BME280;9136;48.822;7.966;2023-04-16T07:09:26;100538.44;;;9.74;100.00
18022;BME280;9136;48.822;7.966;2023-04-16T07:12:14;100525.94;;;9.85;100.00
18022;BME280;9136;48.822;7.966;2023-04-16T07:15:01;100525.56;;;9.99;100.00
18022;BME280;9136;48.822;7.966;2023-04-16T07:17:51;100545.19;;;10.18;100.00
18022;BME280;9136;48.822;7.966;2023-04-16T07:20:39;100531.53;;;10.06;100.00
18022;BME280;9136;48.822;7.966;2023-04-16T07:23:28;100526.28;;;10.06;100.00
18022;BME280;9136;48.822;7.966;2023-04-16T07:26:16;100520.28;;;10.00;100.00
18022;BME280;9136;48.822;7.966;2023-04-16T07:29:04;100543.09;;;9.98;100.00
18022;BME280;9136;48.822;7.966;2023-04-16T07:31:51;100529.41;;;9.86;100.00
18022;BME280;9136;48.822;7.966;2023-04-16T07:34:39;100555.53;;;9.90;100.00
18022;BME280;9136;48.822;7.966;2023-04-16T07:37:27;100566.72;;;9.98;100.00
18022;BME280;9136;48.822;7.966;2023-04-16T07:40:16;100558.06;;;9.93;100.00
18022;BME280;9136;48.822;7.966;2023-04-16T07:43:04;100555.44;;;9.93;100.00
18022;BME280;9136;48.822;7.966;2023-04-16T07:45:52;100554.34;;;10.02;100.00
18022;BME280;9136;48.822;7.966;2023-04-16T07:48:41;100557.84;;;10.04;100.00
18022;BME280;9136;48.822;7.966;2023-04-16T07:51:29;100560.88;;;10.21;100.00
18022;BME280;9136;48.822;7.966;2023-04-16T07:54:17;100576.31;;;10.35;100.00
18022;BME280;9136;48.822;7.966;2023-04-16T07:57:07;100572.25;;;10.56;100.00
18022;BME280;9136;48.822;7.966;2023-04-16T07:59:55;100581.44;;;10.72;100.00
18022;BME280;9136;48.822;7.966;2023-04-16T08:02:43;100548.44;;;10.62;100.00
18022;BME280;9136;48.822;7.966;2023-04-16T08:05:31;100576.69;;;10.85;100.00
18022;BME280;9136;48.822;7.966;2023-04-16T08:08:18;100584.06;;;10.72;100.00
18022;BME280;9136;48.822;7.966;2023-04-16T08:11:06;100579.38;;;10.51;100.00
18022;BME280;9136;48.822;7.966;2023-04-16T08:13:56;100573.66;;;10.37;100.00
18022;BME280;9136;48.822;7.966;2023-04-16T08:16:44;100590.38;;;10.32;100.00
18022;BME280;9136;48.822;7.966;2023-04-16T08:19:32;100574.81;;;10.25;100.00
18022;BME280;9136;48.822;7.966;2023-04-16T08:22:20;100599.94;;;10.35;100.00
18022;BME280;9136;48.822;7.966;2023-04-16T08:25:08;100571.38;;;10.21;100.00
18022;BME280;9136;48.822;7.966;2023-04-16T08:27:56;100593.16;;;10.26;100.00
18022;BME280;9136;48.822;7.966;2023-04-16T08:30:45;100593.94;;;10.30;100.00
18022;BME280;9136;48.822;7.966;2023-04-16T08:33:33;100583.56;;;10.25;100.00
18022;BME280;9136;48.822;7.966;2023-04-16T08:36:21;100606.22;;;10.29;100.00
18022;BME280;9136;48.822;7.966;2023-04-16T08:39:09;100612.41;;;10.27;100.00
18022;BME280;9136;48.822;7.966;2023-04-16T08:41:57;100602.00;;;10.24;100.00
18022;BME280;9136;48.822;7.966;2023-04-16T08:44:47;100602.84;;;10.24;100.00
18022;BME280;9136;48.822;7.966;2023-04-16T08:47:37;100600.19;;;10.26;100.00
18022;BME280;9136;48.822;7.966;2023-04-16T08:50:26;100626.25;;;10.34;100.00
18022;BME280;9136;48.822;7.966;2023-04-16T08:53:17;100618.38;;;10.32;100.00
18022;BME280;9136;48.822;7.966;2023-04-16T08:56:08;100632.00;;;10.48;100.00
18022;BME280;9136;48.822;7.966;2023-04-16T08:58:58;100603.25;;;10.42;100.00
18022;BME280;9136;48.822;7.966;2023-04-16T09:01:50;100627.38;;;10.57;100.00
18022;BME280;9136;48.822;7.966;2023-04-16T09:04:40;100613.03;;;10.69;100.00
18022;BME280;9136;48.822;7.966;2023-04-16T09:07:28;100620.53;;;10.84;100.00
18022;BME280;9136;48.822;7.966;2023-04-16T09:10:17;100615.94;;;10.93;100.00
18022;BME280;9136;48.822;7.966;2023-04-16T09:13:06;100639.13;;;11.08;100.00
18022;BME280;9136;48.822;7.966;2023-04-16T09:15:54;100643.16;;;11.21;100.00
18022;BME280;9136;48.822;7.966;2023-04-16T09:18:42;100625.00;;;11.12;100.00
18022;BME280;9136;48.822;7.966;2023-04-16T09:21:34;100638.63;;;11.26;100.00
18022;BME280;9136;48.822;7.966;2023-04-16T09:24:23;100637.91;;;11.51;100.00
18022;BME280;9136;48.822;7.966;2023-04-16T09:27:11;100642.16;;;11.84;100.00
18022;BME280;9136;48.822;7.966;2023-04-16T09:29:59;100645.13;;;12.01;100.00
18022;BME280;9136;48.822;7.966;2023-04-16T09:32:47;100646.75;;;12.06;100.00
18022;BME280;9136;48.822;7.966;2023-04-16T09:35:44;100632.69;;;11.79;100.00
18022;BME280;9136;48.822;7.966;2023-04-16T09:38:49;100622.94;;;11.82;100.00
18022;BME280;9136;48.822;7.966;2023-04-16T09:41:37;100616.06;;;12.04;100.00
18022;BME280;9136;48.822;7.966;2023-04-16T09:44:34;100650.03;;;12.40;100.00
18022;BME280;9136;48.822;7.966;2023-04-16T09:47:25;100637.63;;;12.16;100.00
18022;BME280;9136;48.822;7.966;2023-04-16T09:50:14;100643.47;;;11.99;100.00
18022;BME280;9136;48.822;7.966;2023-04-16T09:53:03;100642.59;;;12.25;100.00
18022;BME280;9136;48.822;7.966;2023-04-16T09:55:55;100630.66;;;12.15;100.00
18022;BME280;9136;48.822;7.966;2023-04-16T09:58:43;100664.91;;;12.68;100.00
18022;BME280;9136;48.822;7.966;2023-04-16T10:01:31;100625.09;;;11.97;100.00
18022;BME280;9136;48.822;7.966;2023-04-16T10:04:19;100643.81;;;12.16;100.00
18022;BME280;9136;48.822;7.966;2023-04-16T10:07:07;100651.53;;;12.21;100.00
18022;BME280;9136;48.822;7.966;2023-04-16T10:09:55;100640.66;;;11.75;100.00
18022;BME280;9136;48.822;7.966;2023-04-16T10:12:55;100650.75;;;11.61;100.00
18022;BME280;9136;48.822;7.966;2023-04-16T10:15:46;100668.88;;;11.70;100.00
18022;BME280;9136;48.822;7.966;2023-04-16T10:18:36;100654.13;;;11.65;100.00
18022;BME280;9136;48.822;7.966;2023-04-16T10:21:24;100647.56;;;11.50;100.00
18022;BME280;9136;48.822;7.966;2023-04-16T10:24:18;100653.22;;;11.66;100.00
18022;BME280;9136;48.822;7.966;2023-04-16T10:27:06;100659.59;;;11.88;100.00
18022;BME280;9136;48.822;7.966;2023-04-16T10:29:57;100634.09;;;11.90;100.00
18022;BME280;9136;48.822;7.966;2023-04-16T10:32:45;100652.69;;;11.84;100.00
18022;BME280;9136;48.822;7.966;2023-04-16T10:35:38;100665.47;;;11.96;100.00
18022;BME280;9136;48.822;7.966;2023-04-16T10:38:26;100665.13;;;11.79;100.00
18022;BME280;9136;48.822;7.966;2023-04-16T10:41:20;100651.03;;;11.52;100.00
18022;BME280;9136;48.822;7.966;2023-04-16T10:44:12;100667.03;;;11.44;100.00
18022;BME280;9136;48.822;7.966;2023-04-16T10:47:08;100661.44;;;11.26;100.00
18022;BME280;9136;48.822;7.966;2023-04-16T10:49:57;100665.78;;;11.27;100.00
18022;BME280;9136;48.822;7.966;2023-04-16T10:52:44;100664.91;;;11.26;100.00
18022;BME280;9136;48.822;7.966;2023-04-16T10:55:37;100674.16;;;11.41;100.00
18022;BME280;9136;48.822;7.966;2023-04-16T10:58:28;100682.59;;;11.52;100.00
18022;BME280;9136;48.822;7.966;2023-04-16T11:01:17;100663.63;;;11.41;100.00
18022;BME280;9136;48.822;7.966;2023-04-16T11:04:34;100653.69;;;11.51;100.00
18022;BME280;9136;48.822;7.966;2023-04-16T11:07:32;100654.56;;;11.51;100.00
18022;BME280;9136;48.822;7.966;2023-04-16T11:10:27;100678.91;;;11.58;100.00
18022;BME280;9136;48.822;7.966;2023-04-16T11:13:15;100664.22;;;11.51;100.00
18022;BME280;9136;48.822;7.966;2023-04-16T11:16:05;100668.66;;;11.78;100.00
18022;BME280;9136;48.822;7.966;2023-04-16T11:18:52;100667.63;;;11.84;100.00
18022;BME280;9136;48.822;7.966;2023-04-16T11:21:44;100660.66;;;11.83;100.00
18022;BME280;9136;48.822;7.966;2023-04-16T11:24:33;100671.56;;;11.98;100.00
18022;BME280;9136;48.822;7.966;2023-04-16T11:27:22;100669.19;;;11.91;100.00
18022;BME280;9136;48.822;7.966;2023-04-16T11:30:11;100671.66;;;11.95;100.00
18022;BME280;9136;48.822;7.966;2023-04-16T11:33:01;100668.03;;;11.99;100.00
18022;BME280;9136;48.822;7.966;2023-04-16T11:35:55;100666.16;;;12.03;100.00
18022;BME280;9136;48.822;7.966;2023-04-16T11:38:50;100673.38;;;11.96;100.00
18022;BME280;9136;48.822;7.966;2023-04-16T11:41:48;100668.19;;;11.64;100.00
18022;BME280;9136;48.822;7.966;2023-04-16T11:44:37;100671.31;;;11.49;100.00
18022;BME280;9136;48.822;7.966;2023-04-16T11:47:27;100670.19;;;11.26;100.00
18022;BME280;9136;48.822;7.966;2023-04-16T11:50:17;100689.94;;;11.41;100.00
18022;BME280;9136;48.822;7.966;2023-04-16T11:53:05;100683.13;;;11.34;100.00
18022;BME280;9136;48.822;7.966;2023-04-16T11:55:54;100698.09;;;11.32;100.00
18022;BME280;9136;48.822;7.966;2023-04-16T11:58:42;100693.69;;;11.32;100.00
18022;BME280;9136;48.822;7.966;2023-04-16T12:01:35;100682.63;;;11.51;100.00
18022;BME280;9136;48.822;7.966;2023-04-16T12:04:24;100684.38;;;11.81;100.00
18022;BME280;9136;48.822;7.966;2023-04-16T12:07:13;100670.56;;;12.02;100.00
18022;BME280;9136;48.822;7.966;2023-04-16T12:10:05;100676.44;;;12.39;100.00
18022;BME280;9136;48.822;7.966;2023-04-16T12:13:00;100709.75;;;12.40;100.00
18022;BME280;9136;48.822;7.966;2023-04-16T12:15:57;100700.19;;;12.37;100.00
18022;BME280;9136;48.822;7.966;2023-04-16T12:19:00;100677.06;;;12.19;100.00
18022;BME280;9136;48.822;7.966;2023-04-16T12:21:51;100699.97;;;11.89;100.00
18022;BME280;9136;48.822;7.966;2023-04-16T12:24:40;100700.03;;;11.86;100.00
18022;BME280;9136;48.822;7.966;2023-04-16T12:27:42;100689.78;;;11.75;100.00
18022;BME280;9136;48.822;7.966;2023-04-16T12:30:32;100685.06;;;11.57;100.00
18022;BME280;9136;48.822;7.966;2023-04-16T12:33:20;100689.25;;;11.64;100.00
18022;BME280;9136;48.822;7.966;2023-04-16T12:36:18;100712.56;;;11.76;100.00
18022;BME280;9136;48.822;7.966;2023-04-16T12:39:07;100692.63;;;11.69;100.00
18022;BME280;9136;48.822;7.966;2023-04-16T12:41:56;100687.44;;;11.66;100.00
18022;BME280;9136;48.822;7.966;2023-04-16T12:44:43;100706.31;;;11.82;100.00
18022;BME280;9136;48.822;7.966;2023-04-16T12:47:37;100703.22;;;11.97;100.00
18022;BME280;9136;48.822;7.966;2023-04-16T12:50:33;100708.56;;;12.22;100.00
18022;BME280;9136;48.822;7.966;2023-04-16T12:53:22;100694.34;;;11.99;100.00
18022;BME280;9136;48.822;7.966;2023-04-16T12:56:13;100685.03;;;11.89;100.00
18022;BME280;9136;48.822;7.966;2023-04-16T12:59:03;100718.09;;;11.98;100.00
18022;BME280;9136;48.822;7.966;2023-04-16T13:01:51;100710.00;;;12.04;100.00
18022;BME280;9136;48.822;7.966;2023-04-16T13:04:45;100685.09;;;11.86;100.00
18022;BME280;9136;48.822;7.966;2023-04-16T13:07:33;100698.56;;;12.05;100.00
18022;BME280;9136;48.822;7.966;2023-04-16T13:10:24;100693.56;;;11.96;100.00
18022;BME280;9136;48.822;7.966;2023-04-16T13:13:14;100682.66;;;11.80;100.00
18022;BME280;9136;48.822;7.966;2023-04-16T13:16:05;100704.38;;;11.87;100.00
18022;BME280;9136;48.822;7.966;2023-04-16T13:18:57;100687.97;;;11.77;100.00
18022;BME280;9136;48.822;7.966;2023-04-16T13:21:46;100716.38;;;11.97;100.00
18022;BME280;9136;48.822;7.966;2023-04-16T13:24:34;100694.59;;;11.92;100.00
18022;BME280;9136;48.822;7.966;2023-04-16T13:27:22;100699.41;;;12.06;100.00
18022;BME280;9136;48.822;7.966;2023-04-16T13:30:15;100708.69;;;12.19;100.00
18022;BME280;9136;48.822;7.966;2023-04-16T13:33:03;100697.28;;;11.90;100.00
18022;BME280;9136;48.822;7.966;2023-04-16T13:35:57;100706.38;;;11.79;100.00
18022;BME280;9136;48.822;7.966;2023-04-16T13:38:46;100703.44;;;11.89;100.00
18022;BME280;9136;48.822;7.966;2023-04-16T13:41:34;100705.84;;;11.97;100.00
18022;BME280;9136;48.822;7.966;2023-04-16T13:44:24;100700.88;;;11.88;100.00
18022;BME280;9136;48.822;7.966;2023-04-16T13:47:14;100718.72;;;12.06;100.00
18022;BME280;9136;48.822;7.966;2023-04-16T13:50:05;100694.03;;;12.10;100.00
18022;BME280;9136;48.822;7.966;2023-04-16T13:52:53;100699.34;;;12.37;100.00
18022;BME280;9136;48.822;7.966;2023-04-16T13:55:43;100685.31;;;12.35;100.00
18022;BME280;9136;48.822;7.966;2023-04-16T13:58:38;100714.72;;;12.49;100.00
18022;BME280;9136;48.822;7.966;2023-04-16T14:01:28;100722.63;;;12.49;100.00
18022;BME280;9136;48.822;7.966;2023-04-16T14:04:18;100697.13;;;12.23;100.00
18022;BME280;9136;48.822;7.966;2023-04-16T14:07:07;100684.13;;;12.18;100.00
18022;BME280;9136;48.822;7.966;2023-04-16T14:09:56;100717.72;;;12.38;100.00
18022;BME280;9136;48.822;7.966;2023-04-16T14:12:48;100680.13;;;12.05;100.00
18022;BME280;9136;48.822;7.966;2023-04-16T14:15:39;100693.00;;;11.86;100.00
18022;BME280;9136;48.822;7.966;2023-04-16T14:18:30;100707.22;;;11.81;100.00
18022;BME280;9136;48.822;7.966;2023-04-16T14:21:18;100718.03;;;11.70;100.00
18022;BME280;9136;48.822;7.966;2023-04-16T14:24:10;100711.31;;;11.60;100.00
18022;BME280;9136;48.822;7.966;2023-04-16T14:27:01;100686.78;;;11.28;100.00
18022;BME280;9136;48.822;7.966;2023-04-16T14:29:52;100708.56;;;11.33;100.00
18022;BME280;9136;48.822;7.966;2023-04-16T14:32:44;100722.72;;;11.29;100.00
18022;BME280;9136;48.822;7.966;2023-04-16T14:35:42;100708.44;;;11.05;100.00
18022;BME280;9136;48.822;7.966;2023-04-16T14:38:33;100688.09;;;10.79;100.00
18022;BME280;9136;48.822;7.966;2023-04-16T14:41:21;100717.69;;;10.87;100.00
18022;BME280;9136;48.822;7.966;2023-04-16T14:44:09;100696.13;;;10.75;100.00
18022;BME280;9136;48.822;7.966;2023-04-16T14:46:58;100710.84;;;10.82;100.00
18022;BME280;9136;48.822;7.966;2023-04-16T14:49:46;100710.94;;;10.77;100.00
18022;BME280;9136;48.822;7.966;2023-04-16T14:52:34;100680.94;;;10.52;100.00